createdAt,value
2022-12-31T00:01:27.775Z,1.90
2022-12-31T00:06:37.528Z,1.90
2022-12-31T00:11:38.471Z,1.94
2022-12-31T00:16:41.751Z,2.00
2022-12-31T00:21:42.483Z,2.00
2022-12-31T00:26:42.183Z,2.00
2022-12-31T00:31:42.506Z,2.00
2022-12-31T00:36:46.272Z,2.10
2022-12-31T00:41:45.600Z,2.10
2022-12-31T00:46:46.009Z,2.10
2022-12-31T00:51:46.890Z,2.10
2022-12-31T00:56:46.813Z,2.10
2022-12-31T01:01:48.314Z,2.10
2022-12-31T01:06:48.801Z,2.10
2022-12-31T01:11:51.400Z,2.18
2022-12-31T01:16:53.580Z,2.20
2022-12-31T01:21:55.910Z,2.20
2022-12-31T01:26:58.074Z,2.20
2022-12-31T01:31:59.085Z,2.20
2022-12-31T01:36:58.723Z,2.30
2022-12-31T01:41:57.840Z,2.30
2022-12-31T01:47:02.147Z,2.30
2022-12-31T01:52:08.244Z,2.40
2022-12-31T01:57:11.423Z,2.40
2022-12-31T02:02:11.325Z,2.50
2022-12-31T02:07:14.067Z,2.50
2022-12-31T02:12:14.308Z,2.58
2022-12-31T02:17:29.192Z,2.60
2022-12-31T02:23:03.253Z,2.64
2022-12-31T02:28:18.090Z,2.70
2022-12-31T02:33:29.941Z,2.70
2022-12-31T02:38:33.947Z,2.80
2022-12-31T02:43:35.240Z,2.80
2022-12-31T02:49:02.460Z,2.88
2022-12-31T02:54:24.599Z,2.90
2022-12-31T02:59:49.534Z,2.92
2022-12-31T03:04:54.980Z,3.00
2022-12-31T03:09:54.601Z,3.00
2022-12-31T03:14:54.307Z,3.00
2022-12-31T03:20:11.345Z,3.10
2022-12-31T03:25:33.485Z,3.10
2022-12-31T03:30:34.563Z,3.20
2022-12-31T03:35:36.295Z,3.30
2022-12-31T03:40:41.317Z,3.40
2022-12-31T03:45:40.646Z,3.60
2022-12-31T03:50:40.418Z,3.70
2022-12-31T03:55:39.944Z,3.80
2022-12-31T04:00:39.136Z,3.90
2022-12-31T04:05:39.022Z,4.10
2022-12-31T04:10:37.612Z,4.20
2022-12-31T04:15:36.907Z,4.40
2022-12-31T04:20:35.738Z,4.60
2022-12-31T04:25:35.146Z,4.76
2022-12-31T04:30:34.828Z,4.90
2022-12-31T04:35:33.382Z,5.02
2022-12-31T04:40:32.211Z,5.20
2022-12-31T04:45:31.769Z,5.30
2022-12-31T04:50:32.172Z,5.30
2022-12-31T04:55:34.640Z,5.40
2022-12-31T05:00:34.929Z,5.50
2022-12-31T05:05:34.006Z,5.50
2022-12-31T05:10:33.728Z,5.58
2022-12-31T05:15:32.900Z,5.60
2022-12-31T05:20:32.327Z,5.70
2022-12-31T05:25:32.232Z,5.80
2022-12-31T05:30:31.890Z,5.80
2022-12-31T05:35:32.887Z,5.90
2022-12-31T05:40:33.056Z,6.00
2022-12-31T05:45:32.650Z,6.00
2022-12-31T05:50:32.908Z,6.10
2022-12-31T05:55:34.163Z,6.16
2022-12-31T06:00:33.629Z,6.20
2022-12-31T06:05:33.450Z,6.30
2022-12-31T06:10:33.201Z,6.30
2022-12-31T06:15:33.264Z,6.40
2022-12-31T06:20:32.764Z,6.40
2022-12-31T06:25:32.519Z,6.50
2022-12-31T06:30:31.993Z,6.50
2022-12-31T06:35:30.819Z,6.60
2022-12-31T06:40:30.451Z,6.60
2022-12-31T06:45:29.930Z,6.70
2022-12-31T06:50:29.064Z,6.70
2022-12-31T06:55:33.727Z,6.80
2022-12-31T07:00:37.191Z,6.90
2022-12-31T07:05:52.331Z,7.00
2022-12-31T07:11:01.456Z,7.02
2022-12-31T07:16:23.313Z,7.10
2022-12-31T07:21:31.848Z,7.20
2022-12-31T07:26:56.396Z,7.30
2022-12-31T07:32:12.827Z,7.30
2022-12-31T07:37:27.256Z,7.40
2022-12-31T07:42:38.363Z,7.40
2022-12-31T07:47:39.473Z,7.50
2022-12-31T07:52:40.115Z,7.50
2022-12-31T07:57:49.679Z,7.58
2022-12-31T08:03:18.578Z,7.60
2022-12-31T08:08:34.114Z,7.70
2022-12-31T08:13:35.357Z,7.80
2022-12-31T08:18:36.296Z,7.90
2022-12-31T08:23:42.910Z,7.94
2022-12-31T08:29:03.524Z,8.02
2022-12-31T08:34:27.601Z,8.10
2022-12-31T08:39:43.759Z,8.20
2022-12-31T08:45:00.141Z,8.28
2022-12-31T08:50:01.673Z,8.30
2022-12-31T08:55:03.366Z,8.40
2022-12-31T09:00:14.636Z,8.50
2022-12-31T09:05:26.320Z,8.58
2022-12-31T09:10:37.151Z,8.70
2022-12-31T09:15:50.355Z,8.80
2022-12-31T09:20:51.420Z,8.90
2022-12-31T09:26:14.793Z,9.00
2022-12-31T09:31:24.710Z,9.10
2022-12-31T09:36:32.485Z,9.20
2022-12-31T09:42:13.680Z,9.30
2022-12-31T09:48:18.232Z,9.40
2022-12-31T09:53:50.787Z,9.60
2022-12-31T09:59:07.043Z,9.76
2022-12-31T10:04:44.868Z,9.90
2022-12-31T10:10:02.479Z,10.00
2022-12-31T10:15:31.703Z,10.20
2022-12-31T10:20:47.986Z,10.30
2022-12-31T10:26:22.982Z,10.40
2022-12-31T10:31:49.851Z,10.56
2022-12-31T10:37:17.026Z,10.70
2022-12-31T10:43:18.864Z,10.90
2022-12-31T10:49:35.681Z,11.20
2022-12-31T10:55:27.740Z,11.50
2022-12-31T11:00:31.317Z,11.60
2022-12-31T11:06:16.351Z,11.50
2022-12-31T11:11:31.543Z,11.50
2022-12-31T11:16:54.027Z,11.60
2022-12-31T11:22:22.722Z,11.70
2022-12-31T11:27:49.888Z,11.80
2022-12-31T11:33:16.552Z,11.80
2022-12-31T11:38:27.353Z,11.70
2022-12-31T11:43:39.134Z,11.62
2022-12-31T11:48:48.396Z,11.60
2022-12-31T11:54:26.898Z,11.60
2022-12-31T11:59:26.997Z,11.70
2022-12-31T12:04:28.426Z,11.70
2022-12-31T12:09:36.049Z,11.70
2022-12-31T12:14:55.684Z,11.72
2022-12-31T12:20:02.162Z,11.72
2022-12-31T12:25:08.055Z,11.80
2022-12-31T12:30:27.420Z,11.90
2022-12-31T12:35:33.456Z,12.00
2022-12-31T12:40:36.365Z,12.00
2022-12-31T12:45:51.767Z,12.00
2022-12-31T12:50:53.184Z,12.00
2022-12-31T12:56:06.122Z,11.88
2022-12-31T13:01:18.567Z,11.80
2022-12-31T13:06:41.046Z,11.70
2022-12-31T13:11:53.151Z,11.70
2022-12-31T13:17:09.380Z,11.60
2022-12-31T13:22:21.505Z,11.50
2022-12-31T13:27:29.512Z,11.56
2022-12-31T13:32:40.232Z,11.60
2022-12-31T13:37:44.385Z,11.60
2022-12-31T13:42:55.024Z,11.66
2022-12-31T13:48:02.112Z,11.70
2022-12-31T13:53:15.624Z,11.76
2022-12-31T13:58:31.967Z,11.80
2022-12-31T14:03:46.753Z,11.88
2022-12-31T14:08:46.792Z,11.90
2022-12-31T14:14:02.852Z,11.90
2022-12-31T14:19:16.217Z,11.90
2022-12-31T14:24:29.158Z,11.90
2022-12-31T14:29:42.253Z,12.00
2022-12-31T14:34:53.784Z,12.00
2022-12-31T14:40:11.430Z,12.00
2022-12-31T14:45:29.554Z,12.00
2022-12-31T14:50:34.100Z,12.00
2022-12-31T14:55:37.225Z,12.10
2022-12-31T15:00:53.415Z,12.10
2022-12-31T15:06:01.818Z,12.20
2022-12-31T15:11:30.029Z,12.30
2022-12-31T15:16:46.504Z,12.40
2022-12-31T15:22:06.447Z,12.40
2022-12-31T15:27:20.507Z,12.50
2022-12-31T15:32:26.488Z,12.50
2022-12-31T15:37:37.297Z,12.58
2022-12-31T15:42:51.159Z,12.60
2022-12-31T15:47:57.847Z,12.62
2022-12-31T15:52:59.765Z,12.70
2022-12-31T15:58:05.378Z,12.80
2022-12-31T16:03:04.502Z,12.90
2022-12-31T16:08:06.098Z,12.90
2022-12-31T16:13:06.396Z,13.00
2022-12-31T16:18:15.773Z,13.00
2022-12-31T16:23:27.740Z,13.10
2022-12-31T16:28:32.768Z,13.10
2022-12-31T16:33:34.076Z,13.20
2022-12-31T16:38:41.119Z,13.20
2022-12-31T16:43:44.825Z,13.30
2022-12-31T16:48:52.329Z,13.30
2022-12-31T16:53:53.476Z,13.30
2022-12-31T16:58:58.901Z,13.24
2022-12-31T17:04:06.139Z,13.26
2022-12-31T17:09:20.876Z,13.22
2022-12-31T17:14:24.855Z,13.24
2022-12-31T17:19:40.094Z,13.30
2022-12-31T17:24:42.263Z,13.20
2022-12-31T17:29:42.119Z,13.20
2022-12-31T17:34:52.675Z,13.20
2022-12-31T17:40:49.989Z,13.22
2022-12-31T17:45:25.344Z,13.28
2022-12-31T17:50:29.740Z,13.36
2022-12-31T17:55:30.772Z,13.40
2022-12-31T18:00:33.417Z,13.50
2022-12-31T18:05:33.510Z,13.60
2022-12-31T18:10:38.286Z,13.60
2022-12-31T18:15:36.845Z,13.60
2022-12-31T18:20:36.275Z,13.64
2022-12-31T18:30:34.116Z,13.70
2022-12-31T18:36:07.228Z,13.70
2022-12-31T18:40:59.768Z,13.74
2022-12-31T18:46:02.381Z,13.80
2022-12-31T18:51:03.778Z,13.80
2022-12-31T18:56:03.345Z,13.80
2022-12-31T19:01:02.676Z,13.90
2022-12-31T19:06:02.156Z,13.90
2022-12-31T19:11:02.767Z,13.98
2022-12-31T19:16:04.082Z,14.00
2022-12-31T19:21:05.091Z,14.10
2022-12-31T19:26:04.407Z,14.10
2022-12-31T19:31:08.041Z,14.10
2022-12-31T19:36:15.112Z,14.12
2022-12-31T19:41:21.181Z,14.10
2022-12-31T19:46:21.697Z,14.10
2022-12-31T19:51:23.564Z,14.10
2022-12-31T19:56:24.884Z,14.02
2022-12-31T20:01:28.710Z,14.00
2022-12-31T20:06:31.258Z,14.00
2022-12-31T20:11:31.512Z,14.00
2022-12-31T20:16:32.015Z,14.00
2022-12-31T20:21:35.748Z,14.02
2022-12-31T20:26:35.108Z,14.06
2022-12-31T20:31:34.651Z,14.10
2022-12-31T20:36:33.883Z,14.10
2022-12-31T20:41:33.547Z,14.10
2022-12-31T20:46:36.826Z,14.10
2022-12-31T20:51:38.117Z,14.10
2022-12-31T20:56:40.868Z,14.10
2022-12-31T21:02:19.314Z,14.10
2022-12-31T21:07:00.586Z,14.10
2022-12-31T21:12:17.165Z,14.10
2022-12-31T21:17:16.666Z,14.10
2022-12-31T21:22:16.161Z,14.10
2022-12-31T21:27:18.492Z,14.10
2022-12-31T21:32:18.197Z,14.10
2022-12-31T21:37:17.561Z,14.04
2022-12-31T21:42:18.296Z,14.00
2022-12-31T21:47:39.480Z,14.00
2022-12-31T21:52:42.356Z,14.00
2022-12-31T21:58:15.629Z,13.98
2022-12-31T22:03:20.108Z,14.00
2022-12-31T22:08:19.865Z,14.00
2022-12-31T22:13:20.095Z,14.00
2022-12-31T22:18:20.558Z,13.90
2022-12-31T22:23:20.538Z,13.90
2022-12-31T22:33:39.309Z,13.90
2022-12-31T22:38:39.273Z,13.84
2022-12-31T22:43:41.775Z,13.80
2022-12-31T22:48:42.928Z,13.80
2022-12-31T22:53:44.787Z,13.90
2022-12-31T22:58:45.602Z,13.90
2022-12-31T23:03:46.680Z,13.90
2022-12-31T23:09:07.247Z,13.90
2022-12-31T23:14:30.133Z,13.90
2022-12-31T23:19:47.524Z,13.90
2022-12-31T23:24:47.156Z,13.92
2022-12-31T23:29:47.692Z,14.00
2022-12-31T23:34:48.245Z,14.00
2022-12-31T23:39:47.890Z,14.10
2022-12-31T23:44:49.663Z,14.00
2022-12-31T23:49:49.419Z,14.00
2022-12-31T23:54:48.877Z,14.02
2022-12-31T23:59:49.403Z,14.00
